sensor_id;sensor_type;location;lat;lon;timestamp;temperature;humidity
35299;DHT22;21415;48.054;16.646;2022-10-19T00:02:06;21.10;56.20
35299;DHT22;21415;48.054;16.646;2022-10-19T00:04:32;21.10;56.40
35299;DHT22;21415;48.054;16.646;2022-10-19T00:06:58;21.10;56.50
35299;DHT22;21415;48.054;16.646;2022-10-19T00:09:23;21.00;56.60
35299;DHT22;21415;48.054;16.646;2022-10-19T00:11:49;21.10;56.70
35299;DHT22;21415;48.054;16.646;2022-10-19T00:14:20;21.10;56.80
35299;DHT22;21415;48.054;16.646;2022-10-19T00:16:48;21.10;57.10
35299;DHT22;21415;48.054;16.646;2022-10-19T00:19:17;21.10;56.90
35299;DHT22;21415;48.054;16.646;2022-10-19T00:21:44;21.00;57.00
35299;DHT22;21415;48.054;16.646;2022-10-19T00:24:10;21.00;56.80
35299;DHT22;21415;48.054;16.646;2022-10-19T00:26:36;21.00;56.80
35299;DHT22;21415;48.054;16.646;2022-10-19T00:29:03;21.00;56.80
35299;DHT22;21415;48.054;16.646;2022-10-19T00:31:29;21.00;56.90
35299;DHT22;21415;48.054;16.646;2022-10-19T00:33:56;21.00;56.70
35299;DHT22;21415;48.054;16.646;2022-10-19T00:36:30;21.00;56.80
35299;DHT22;21415;48.054;16.646;2022-10-19T00:38:57;21.00;56.80
35299;DHT22;21415;48.054;16.646;2022-10-19T00:41:26;21.00;56.80
35299;DHT22;21415;48.054;16.646;2022-10-19T00:43:59;21.00;56.90
35299;DHT22;21415;48.054;16.646;2022-10-19T00:46:27;21.00;57.00
35299;DHT22;21415;48.054;16.646;2022-10-19T00:49:42;21.00;56.90
35299;DHT22;21415;48.054;16.646;2022-10-19T00:51:45;21.00;56.90
35299;DHT22;21415;48.054;16.646;2022-10-19T00:54:14;21.00;56.80
35299;DHT22;21415;48.054;16.646;2022-10-19T00:56:42;21.00;56.70
35299;DHT22;21415;48.054;16.646;2022-10-19T00:59:09;21.00;56.70
35299;DHT22;21415;48.054;16.646;2022-10-19T01:01:37;21.00;56.70
35299;DHT22;21415;48.054;16.646;2022-10-19T01:04:03;21.00;56.60
35299;DHT22;21415;48.054;16.646;2022-10-19T01:06:30;21.00;56.60
35299;DHT22;21415;48.054;16.646;2022-10-19T01:08:56;21.00;56.50
35299;DHT22;21415;48.054;16.646;2022-10-19T01:22:41;21.00;56.10
35299;DHT22;21415;48.054;16.646;2022-10-19T01:36:10;21.00;55.60
35299;DHT22;21415;48.054;16.646;2022-10-19T01:38:48;21.00;55.60
35299;DHT22;21415;48.054;16.646;2022-10-19T01:43:55;20.90;55.40
35299;DHT22;21415;48.054;16.646;2022-10-19T01:46:37;20.90;55.40
35299;DHT22;21415;48.054;16.646;2022-10-19T01:51:48;20.90;55.30
35299;DHT22;21415;48.054;16.646;2022-10-19T01:54:16;20.80;55.30
35299;DHT22;21415;48.054;16.646;2022-10-19T01:56:43;20.80;55.20
35299;DHT22;21415;48.054;16.646;2022-10-19T01:59:11;20.80;55.30
35299;DHT22;21415;48.054;16.646;2022-10-19T02:01:41;20.80;55.30
35299;DHT22;21415;48.054;16.646;2022-10-19T02:04:10;20.80;55.30
35299;DHT22;21415;48.054;16.646;2022-10-19T02:06:37;20.80;55.30
35299;DHT22;21415;48.054;16.646;2022-10-19T02:09:03;20.70;55.20
35299;DHT22;21415;48.054;16.646;2022-10-19T02:11:30;20.70;55.20
35299;DHT22;21415;48.054;16.646;2022-10-19T02:14:04;20.70;55.20
35299;DHT22;21415;48.054;16.646;2022-10-19T02:16:40;20.70;55.40
35299;DHT22;21415;48.054;16.646;2022-10-19T02:19:10;20.70;55.40
35299;DHT22;21415;48.054;16.646;2022-10-19T02:21:37;20.70;55.30
35299;DHT22;21415;48.054;16.646;2022-10-19T02:24:04;20.70;55.20
35299;DHT22;21415;48.054;16.646;2022-10-19T02:26:29;20.60;55.20
35299;DHT22;21415;48.054;16.646;2022-10-19T02:28:56;20.60;55.20
35299;DHT22;21415;48.054;16.646;2022-10-19T02:31:22;20.60;55.20
35299;DHT22;21415;48.054;16.646;2022-10-19T02:33:48;20.60;55.20
35299;DHT22;21415;48.054;16.646;2022-10-19T02:36:14;20.60;55.10
35299;DHT22;21415;48.054;16.646;2022-10-19T02:38:40;20.60;54.90
35299;DHT22;21415;48.054;16.646;2022-10-19T02:41:17;20.60;55.00
35299;DHT22;21415;48.054;16.646;2022-10-19T02:43:47;20.60;55.30
35299;DHT22;21415;48.054;16.646;2022-10-19T02:46:22;20.60;55.30
35299;DHT22;21415;48.054;16.646;2022-10-19T02:48:50;20.50;55.40
35299;DHT22;21415;48.054;16.646;2022-10-19T02:51:33;20.50;55.20
35299;DHT22;21415;48.054;16.646;2022-10-19T02:54:00;20.50;55.40
35299;DHT22;21415;48.054;16.646;2022-10-19T02:56:26;20.50;55.20
35299;DHT22;21415;48.054;16.646;2022-10-19T02:58:51;20.50;55.20
35299;DHT22;21415;48.054;16.646;2022-10-19T03:01:17;20.50;55.20
35299;DHT22;21415;48.054;16.646;2022-10-19T03:03:43;20.40;55.00
35299;DHT22;21415;48.054;16.646;2022-10-19T03:06:09;20.40;54.90
35299;DHT22;21415;48.054;16.646;2022-10-19T03:08:35;20.40;54.90
35299;DHT22;21415;48.054;16.646;2022-10-19T03:11:00;20.30;54.90
35299;DHT22;21415;48.054;16.646;2022-10-19T03:13:26;20.30;54.80
35299;DHT22;21415;48.054;16.646;2022-10-19T03:15:52;20.30;54.80
35299;DHT22;21415;48.054;16.646;2022-10-19T03:18:18;20.20;54.80
35299;DHT22;21415;48.054;16.646;2022-10-19T03:20:43;20.20;54.80
35299;DHT22;21415;48.054;16.646;2022-10-19T03:23:09;20.20;54.80
35299;DHT22;21415;48.054;16.646;2022-10-19T03:25:35;20.10;54.80
35299;DHT22;21415;48.054;16.646;2022-10-19T03:28:00;20.10;54.80
35299;DHT22;21415;48.054;16.646;2022-10-19T03:30:26;20.10;54.90
35299;DHT22;21415;48.054;16.646;2022-10-19T03:32:52;20.10;54.90
35299;DHT22;21415;48.054;16.646;2022-10-19T03:35:18;20.00;54.90
35299;DHT22;21415;48.054;16.646;2022-10-19T03:37:43;20.00;55.00
35299;DHT22;21415;48.054;16.646;2022-10-19T03:40:09;20.00;55.00
35299;DHT22;21415;48.054;16.646;2022-10-19T03:42:35;20.00;55.00
35299;DHT22;21415;48.054;16.646;2022-10-19T03:45:01;19.90;55.00
35299;DHT22;21415;48.054;16.646;2022-10-19T03:47:27;19.90;55.10
35299;DHT22;21415;48.054;16.646;2022-10-19T03:49:53;19.90;55.10
35299;DHT22;21415;48.054;16.646;2022-10-19T03:52:19;19.90;55.40
35299;DHT22;21415;48.054;16.646;2022-10-19T03:54:45;19.90;55.10
35299;DHT22;21415;48.054;16.646;2022-10-19T03:57:13;19.90;55.10
35299;DHT22;21415;48.054;16.646;2022-10-19T03:59:39;19.90;55.00
35299;DHT22;21415;48.054;16.646;2022-10-19T04:02:05;19.90;54.90
35299;DHT22;21415;48.054;16.646;2022-10-19T04:04:31;19.90;54.90
35299;DHT22;21415;48.054;16.646;2022-10-19T04:06:56;19.90;54.90
35299;DHT22;21415;48.054;16.646;2022-10-19T04:09:22;19.80;54.90
35299;DHT22;21415;48.054;16.646;2022-10-19T04:11:48;19.80;54.90
35299;DHT22;21415;48.054;16.646;2022-10-19T04:14:16;19.80;54.90
35299;DHT22;21415;48.054;16.646;2022-10-19T04:16:42;19.80;54.90
35299;DHT22;21415;48.054;16.646;2022-10-19T04:19:13;19.80;54.90
35299;DHT22;21415;48.054;16.646;2022-10-19T04:21:39;19.70;55.00
35299;DHT22;21415;48.054;16.646;2022-10-19T04:24:13;19.70;54.80
35299;DHT22;21415;48.054;16.646;2022-10-19T04:26:41;19.70;54.80
35299;DHT22;21415;48.054;16.646;2022-10-19T04:29:08;19.80;54.80
35299;DHT22;21415;48.054;16.646;2022-10-19T04:31:33;19.70;54.70
35299;DHT22;21415;48.054;16.646;2022-10-19T04:33:59;19.60;54.70
35299;DHT22;21415;48.054;16.646;2022-10-19T04:36:25;19.60;54.70
35299;DHT22;21415;48.054;16.646;2022-10-19T04:38:51;19.60;54.30
35299;DHT22;21415;48.054;16.646;2022-10-19T04:41:18;19.50;54.40
35299;DHT22;21415;48.054;16.646;2022-10-19T04:43:44;19.50;54.50
35299;DHT22;21415;48.054;16.646;2022-10-19T04:46:18;19.50;54.60
35299;DHT22;21415;48.054;16.646;2022-10-19T04:48:46;19.40;54.90
35299;DHT22;21415;48.054;16.646;2022-10-19T04:51:13;19.40;54.70
35299;DHT22;21415;48.054;16.646;2022-10-19T04:53:40;19.30;54.80
35299;DHT22;21415;48.054;16.646;2022-10-19T04:56:09;19.30;54.80
35299;DHT22;21415;48.054;16.646;2022-10-19T04:58:35;19.20;54.90
35299;DHT22;21415;48.054;16.646;2022-10-19T05:01:16;19.20;54.90
35299;DHT22;21415;48.054;16.646;2022-10-19T05:03:42;19.10;55.20
35299;DHT22;21415;48.054;16.646;2022-10-19T05:06:08;19.10;54.90
35299;DHT22;21415;48.054;16.646;2022-10-19T05:08:35;19.00;55.00
35299;DHT22;21415;48.054;16.646;2022-10-19T05:11:03;19.00;55.10
35299;DHT22;21415;48.054;16.646;2022-10-19T05:13:31;19.00;55.20
35299;DHT22;21415;48.054;16.646;2022-10-19T05:15:59;18.90;55.20
35299;DHT22;21415;48.054;16.646;2022-10-19T05:18:25;18.90;55.30
35299;DHT22;21415;48.054;16.646;2022-10-19T05:20:58;18.90;55.30
35299;DHT22;21415;48.054;16.646;2022-10-19T05:23:24;18.90;55.30
35299;DHT22;21415;48.054;16.646;2022-10-19T05:25:59;18.80;55.20
35299;DHT22;21415;48.054;16.646;2022-10-19T05:28:24;18.90;55.60
35299;DHT22;21415;48.054;16.646;2022-10-19T05:30:50;18.80;55.30
35299;DHT22;21415;48.054;16.646;2022-10-19T05:33:16;18.80;55.30
35299;DHT22;21415;48.054;16.646;2022-10-19T05:35:41;18.80;55.30
35299;DHT22;21415;48.054;16.646;2022-10-19T05:38:07;18.80;55.40
35299;DHT22;21415;48.054;16.646;2022-10-19T05:40:33;18.70;55.30
35299;DHT22;21415;48.054;16.646;2022-10-19T05:42:58;18.70;55.30
35299;DHT22;21415;48.054;16.646;2022-10-19T05:45:24;18.70;55.40
35299;DHT22;21415;48.054;16.646;2022-10-19T05:47:50;18.80;55.50
35299;DHT22;21415;48.054;16.646;2022-10-19T05:50:16;18.70;55.40
35299;DHT22;21415;48.054;16.646;2022-10-19T05:52:41;18.70;55.50
35299;DHT22;21415;48.054;16.646;2022-10-19T05:55:07;18.70;55.50
35299;DHT22;21415;48.054;16.646;2022-10-19T05:57:33;18.70;55.60
35299;DHT22;21415;48.054;16.646;2022-10-19T05:59:59;18.80;55.70
35299;DHT22;21415;48.054;16.646;2022-10-19T06:02:25;18.80;55.60
35299;DHT22;21415;48.054;16.646;2022-10-19T06:04:50;18.80;55.30
35299;DHT22;21415;48.054;16.646;2022-10-19T06:07:16;18.80;55.40
35299;DHT22;21415;48.054;16.646;2022-10-19T06:09:42;18.80;55.60
35299;DHT22;21415;48.054;16.646;2022-10-19T06:12:08;18.80;55.70
35299;DHT22;21415;48.054;16.646;2022-10-19T06:14:33;18.90;55.80
35299;DHT22;21415;48.054;16.646;2022-10-19T06:16:59;18.90;55.90
35299;DHT22;21415;48.054;16.646;2022-10-19T06:19:25;19.00;56.00
35299;DHT22;21415;48.054;16.646;2022-10-19T06:21:50;19.00;56.00
35299;DHT22;21415;48.054;16.646;2022-10-19T06:24:16;19.10;56.00
35299;DHT22;21415;48.054;16.646;2022-10-19T06:26:42;19.10;55.90
35299;DHT22;21415;48.054;16.646;2022-10-19T06:29:08;19.20;55.90
35299;DHT22;21415;48.054;16.646;2022-10-19T06:31:34;19.20;55.90
35299;DHT22;21415;48.054;16.646;2022-10-19T06:34:01;19.20;55.90
35299;DHT22;21415;48.054;16.646;2022-10-19T06:36:28;19.30;55.70
35299;DHT22;21415;48.054;16.646;2022-10-19T06:38:54;19.30;55.80
35299;DHT22;21415;48.054;16.646;2022-10-19T06:41:21;19.40;55.60
35299;DHT22;21415;48.054;16.646;2022-10-19T06:43:51;19.40;55.70
35299;DHT22;21415;48.054;16.646;2022-10-19T06:46:19;19.40;55.90
35299;DHT22;21415;48.054;16.646;2022-10-19T06:48:57;19.40;55.80
35299;DHT22;21415;48.054;16.646;2022-10-19T06:51:26;19.40;56.00
35299;DHT22;21415;48.054;16.646;2022-10-19T06:53:53;19.50;55.80
35299;DHT22;21415;48.054;16.646;2022-10-19T06:56:19;19.50;55.70
35299;DHT22;21415;48.054;16.646;2022-10-19T06:58:45;19.60;55.80
35299;DHT22;21415;48.054;16.646;2022-10-19T07:01:11;19.60;55.80
35299;DHT22;21415;48.054;16.646;2022-10-19T07:03:39;19.70;55.60
35299;DHT22;21415;48.054;16.646;2022-10-19T07:06:07;19.70;55.60
35299;DHT22;21415;48.054;16.646;2022-10-19T07:08:34;19.70;55.60
35299;DHT22;21415;48.054;16.646;2022-10-19T07:11:04;19.70;55.60
35299;DHT22;21415;48.054;16.646;2022-10-19T07:13:30;19.70;55.60
35299;DHT22;21415;48.054;16.646;2022-10-19T07:15:58;19.70;55.60
35299;DHT22;21415;48.054;16.646;2022-10-19T07:18:25;19.70;55.60
35299;DHT22;21415;48.054;16.646;2022-10-19T07:20:58;19.70;55.60
35299;DHT22;21415;48.054;16.646;2022-10-19T07:23:26;19.70;55.60
35299;DHT22;21415;48.054;16.646;2022-10-19T07:25:53;19.80;55.60
35299;DHT22;21415;48.054;16.646;2022-10-19T07:28:24;19.70;55.50
35299;DHT22;21415;48.054;16.646;2022-10-19T07:30:49;19.80;55.50
35299;DHT22;21415;48.054;16.646;2022-10-19T07:33:15;19.90;55.50
35299;DHT22;21415;48.054;16.646;2022-10-19T07:35:41;19.90;55.50
35299;DHT22;21415;48.054;16.646;2022-10-19T07:38:07;20.00;55.50
35299;DHT22;21415;48.054;16.646;2022-10-19T07:40:33;20.00;55.40
35299;DHT22;21415;48.054;16.646;2022-10-19T07:42:59;20.10;55.30
35299;DHT22;21415;48.054;16.646;2022-10-19T07:45:25;20.10;55.20
35299;DHT22;21415;48.054;16.646;2022-10-19T07:47:50;20.20;55.00
35299;DHT22;21415;48.054;16.646;2022-10-19T07:50:16;20.20;54.90
35299;DHT22;21415;48.054;16.646;2022-10-19T07:52:42;20.30;54.90
35299;DHT22;21415;48.054;16.646;2022-10-19T07:55:08;20.40;54.80
35299;DHT22;21415;48.054;16.646;2022-10-19T07:57:34;20.40;54.60
35299;DHT22;21415;48.054;16.646;2022-10-19T08:00:00;20.50;54.50
35299;DHT22;21415;48.054;16.646;2022-10-19T08:02:26;20.50;54.50
35299;DHT22;21415;48.054;16.646;2022-10-19T08:04:52;20.50;54.50
35299;DHT22;21415;48.054;16.646;2022-10-19T08:07:18;20.60;54.50
35299;DHT22;21415;48.054;16.646;2022-10-19T08:09:43;20.70;54.50
35299;DHT22;21415;48.054;16.646;2022-10-19T08:12:09;20.70;54.30
35299;DHT22;21415;48.054;16.646;2022-10-19T08:14:35;20.80;54.10
35299;DHT22;21415;48.054;16.646;2022-10-19T08:17:01;21.00;53.90
35299;DHT22;21415;48.054;16.646;2022-10-19T08:19:27;21.00;53.60
35299;DHT22;21415;48.054;16.646;2022-10-19T08:21:52;21.10;53.40
35299;DHT22;21415;48.054;16.646;2022-10-19T08:24:19;21.10;53.20
35299;DHT22;21415;48.054;16.646;2022-10-19T08:26:45;21.20;53.10
35299;DHT22;21415;48.054;16.646;2022-10-19T08:29:13;21.20;52.80
35299;DHT22;21415;48.054;16.646;2022-10-19T08:31:41;21.20;52.90
35299;DHT22;21415;48.054;16.646;2022-10-19T08:34:07;21.30;52.60
35299;DHT22;21415;48.054;16.646;2022-10-19T08:36:33;21.30;52.40
35299;DHT22;21415;48.054;16.646;2022-10-19T08:39:01;21.40;52.30
35299;DHT22;21415;48.054;16.646;2022-10-19T08:49:00;21.50;51.20
35299;DHT22;21415;48.054;16.646;2022-10-19T08:51:30;21.60;51.60
35299;DHT22;21415;48.054;16.646;2022-10-19T08:53:59;21.70;51.40
35299;DHT22;21415;48.054;16.646;2022-10-19T08:56:32;21.70;51.30
35299;DHT22;21415;48.054;16.646;2022-10-19T09:01:54;21.80;50.40
35299;DHT22;21415;48.054;16.646;2022-10-19T09:07:24;21.80;50.40
35299;DHT22;21415;48.054;16.646;2022-10-19T09:09:48;21.90;50.80
35299;DHT22;21415;48.054;16.646;2022-10-19T09:12:18;21.90;50.40
35299;DHT22;21415;48.054;16.646;2022-10-19T09:17:19;22.00;49.90
35299;DHT22;21415;48.054;16.646;2022-10-19T09:19:45;22.10;50.30
35299;DHT22;21415;48.054;16.646;2022-10-19T09:22:29;22.10;50.20
35299;DHT22;21415;48.054;16.646;2022-10-19T09:25:00;22.10;49.50
35299;DHT22;21415;48.054;16.646;2022-10-19T09:27:34;22.20;49.80
35299;DHT22;21415;48.054;16.646;2022-10-19T09:30:05;22.30;49.60
35299;DHT22;21415;48.054;16.646;2022-10-19T09:32:34;22.30;49.80
35299;DHT22;21415;48.054;16.646;2022-10-19T09:35:03;22.40;49.70
35299;DHT22;21415;48.054;16.646;2022-10-19T09:37:31;22.40;49.60
35299;DHT22;21415;48.054;16.646;2022-10-19T09:39:57;22.40;49.70
35299;DHT22;21415;48.054;16.646;2022-10-19T09:42:25;22.40;49.50
35299;DHT22;21415;48.054;16.646;2022-10-19T09:44:54;22.50;49.10
35299;DHT22;21415;48.054;16.646;2022-10-19T09:47:34;22.50;48.90
35299;DHT22;21415;48.054;16.646;2022-10-19T09:50:23;22.50;48.00
35299;DHT22;21415;48.054;16.646;2022-10-19T09:53:03;22.50;48.50
35299;DHT22;21415;48.054;16.646;2022-10-19T09:55:36;22.40;48.60
35299;DHT22;21415;48.054;16.646;2022-10-19T09:58:16;22.40;49.30
35299;DHT22;21415;48.054;16.646;2022-10-19T10:03:25;22.50;49.20
35299;DHT22;21415;48.054;16.646;2022-10-19T10:05:52;22.50;48.90
35299;DHT22;21415;48.054;16.646;2022-10-19T10:08:23;22.50;49.20
35299;DHT22;21415;48.054;16.646;2022-10-19T10:11:04;22.50;48.80
35299;DHT22;21415;48.054;16.646;2022-10-19T10:13:38;22.60;48.60
35299;DHT22;21415;48.054;16.646;2022-10-19T10:16:07;22.60;48.30
35299;DHT22;21415;48.054;16.646;2022-10-19T10:18:49;22.60;48.60
35299;DHT22;21415;48.054;16.646;2022-10-19T10:21:22;22.70;47.90
35299;DHT22;21415;48.054;16.646;2022-10-19T10:24:25;22.70;48.20
35299;DHT22;21415;48.054;16.646;2022-10-19T10:26:55;22.70;48.10
35299;DHT22;21415;48.054;16.646;2022-10-19T10:37:12;22.80;48.50
35299;DHT22;21415;48.054;16.646;2022-10-19T10:39:41;22.80;48.40
35299;DHT22;21415;48.054;16.646;2022-10-19T10:42:14;22.80;48.10
35299;DHT22;21415;48.054;16.646;2022-10-19T10:44:50;22.80;47.80
35299;DHT22;21415;48.054;16.646;2022-10-19T10:47:17;22.80;47.70
35299;DHT22;21415;48.054;16.646;2022-10-19T10:50:17;22.90;48.30
35299;DHT22;21415;48.054;16.646;2022-10-19T10:53:02;22.90;47.50
35299;DHT22;21415;48.054;16.646;2022-10-19T10:55:30;22.90;47.20
35299;DHT22;21415;48.054;16.646;2022-10-19T10:58:15;23.00;47.60
35299;DHT22;21415;48.054;16.646;2022-10-19T11:00:43;23.00;46.50
35299;DHT22;21415;48.054;16.646;2022-10-19T11:03:18;23.00;47.10
35299;DHT22;21415;48.054;16.646;2022-10-19T11:05:53;23.00;46.60
35299;DHT22;21415;48.054;16.646;2022-10-19T11:08:27;23.00;46.90
35299;DHT22;21415;48.054;16.646;2022-10-19T11:11:09;23.10;47.00
35299;DHT22;21415;48.054;16.646;2022-10-19T11:16:12;23.10;46.60
35299;DHT22;21415;48.054;16.646;2022-10-19T11:18:43;23.10;46.70
35299;DHT22;21415;48.054;16.646;2022-10-19T11:21:12;23.20;46.60
35299;DHT22;21415;48.054;16.646;2022-10-19T11:31:50;23.20;46.50
35299;DHT22;21415;48.054;16.646;2022-10-19T11:34:36;23.20;46.00
35299;DHT22;21415;48.054;16.646;2022-10-19T11:39:34;23.30;45.80
35299;DHT22;21415;48.054;16.646;2022-10-19T11:44:59;23.30;45.60
35299;DHT22;21415;48.054;16.646;2022-10-19T11:50:24;23.30;45.40
35299;DHT22;21415;48.054;16.646;2022-10-19T12:04:27;23.30;44.50
35299;DHT22;21415;48.054;16.646;2022-10-19T12:07:15;23.20;44.30
35299;DHT22;21415;48.054;16.646;2022-10-19T12:14:56;23.20;43.80
35299;DHT22;21415;48.054;16.646;2022-10-19T12:17:31;23.20;44.10
35299;DHT22;21415;48.054;16.646;2022-10-19T12:20:02;23.20;43.90
35299;DHT22;21415;48.054;16.646;2022-10-19T12:22:30;23.20;44.00
35299;DHT22;21415;48.054;16.646;2022-10-19T12:25:00;23.20;44.30
35299;DHT22;21415;48.054;16.646;2022-10-19T12:27:33;23.10;43.80
35299;DHT22;21415;48.054;16.646;2022-10-19T12:30:05;23.10;43.70
35299;DHT22;21415;48.054;16.646;2022-10-19T12:32:40;23.20;44.10
35299;DHT22;21415;48.054;16.646;2022-10-19T12:35:30;23.20;43.90
35299;DHT22;21415;48.054;16.646;2022-10-19T12:41:24;23.20;43.40
35299;DHT22;21415;48.054;16.646;2022-10-19T12:51:51;23.20;43.10
35299;DHT22;21415;48.054;16.646;2022-10-19T12:54:22;23.20;43.70
35299;DHT22;21415;48.054;16.646;2022-10-19T12:56:50;23.10;43.20
35299;DHT22;21415;48.054;16.646;2022-10-19T12:59:29;23.10;43.50
35299;DHT22;21415;48.054;16.646;2022-10-19T13:01:57;23.10;42.90
35299;DHT22;21415;48.054;16.646;2022-10-19T13:04:28;23.10;43.20
35299;DHT22;21415;48.054;16.646;2022-10-19T13:14:48;23.00;43.80
35299;DHT22;21415;48.054;16.646;2022-10-19T13:25:32;22.90;44.20
35299;DHT22;21415;48.054;16.646;2022-10-19T13:41:43;22.90;44.20
35299;DHT22;21415;48.054;16.646;2022-10-19T13:44:17;22.80;44.20
35299;DHT22;21415;48.054;16.646;2022-10-19T14:03:52;22.80;44.40
35299;DHT22;21415;48.054;16.646;2022-10-19T14:11:29;22.70;44.50
35299;DHT22;21415;48.054;16.646;2022-10-19T14:14:26;22.70;44.10
35299;DHT22;21415;48.054;16.646;2022-10-19T14:16:55;22.70;44.10
35299;DHT22;21415;48.054;16.646;2022-10-19T14:19:46;22.60;44.10
35299;DHT22;21415;48.054;16.646;2022-10-19T14:22:26;22.60;43.80
35299;DHT22;21415;48.054;16.646;2022-10-19T14:27:42;22.40;43.60
35299;DHT22;21415;48.054;16.646;2022-10-19T14:30:28;22.40;43.90
35299;DHT22;21415;48.054;16.646;2022-10-19T14:32:56;22.30;43.60
35299;DHT22;21415;48.054;16.646;2022-10-19T14:35:27;22.20;43.80
35299;DHT22;21415;48.054;16.646;2022-10-19T14:37:53;22.10;43.70
35299;DHT22;21415;48.054;16.646;2022-10-19T14:40:31;22.10;43.60
35299;DHT22;21415;48.054;16.646;2022-10-19T14:42:59;22.00;43.20
35299;DHT22;21415;48.054;16.646;2022-10-19T14:45:30;21.90;43.50
35299;DHT22;21415;48.054;16.646;2022-10-19T14:48:14;21.90;43.40
35299;DHT22;21415;48.054;16.646;2022-10-19T14:50:44;21.80;42.80
35299;DHT22;21415;48.054;16.646;2022-10-19T14:53:24;21.70;43.00
35299;DHT22;21415;48.054;16.646;2022-10-19T14:55:55;21.60;42.50
35299;DHT22;21415;48.054;16.646;2022-10-19T14:58:24;21.50;42.90
35299;DHT22;21415;48.054;16.646;2022-10-19T15:00:52;21.40;42.90
35299;DHT22;21415;48.054;16.646;2022-10-19T15:03:27;21.30;42.90
35299;DHT22;21415;48.054;16.646;2022-10-19T15:05:58;21.20;42.80
35299;DHT22;21415;48.054;16.646;2022-10-19T15:08:39;21.10;42.90
35299;DHT22;21415;48.054;16.646;2022-10-19T15:11:26;21.00;42.50
35299;DHT22;21415;48.054;16.646;2022-10-19T15:14:18;20.90;42.80
35299;DHT22;21415;48.054;16.646;2022-10-19T15:16:56;20.90;43.10
35299;DHT22;21415;48.054;16.646;2022-10-19T15:27:41;20.50;42.50
35299;DHT22;21415;48.054;16.646;2022-10-19T15:30:29;20.40;43.10
35299;DHT22;21415;48.054;16.646;2022-10-19T15:40:41;20.10;42.80
35299;DHT22;21415;48.054;16.646;2022-10-19T15:43:49;20.00;42.90
35299;DHT22;21415;48.054;16.646;2022-10-19T15:46:32;19.90;42.80
35299;DHT22;21415;48.054;16.646;2022-10-19T15:48:59;19.90;42.70
35299;DHT22;21415;48.054;16.646;2022-10-19T15:56:21;19.70;42.80
35299;DHT22;21415;48.054;16.646;2022-10-19T15:58:48;19.60;42.80
35299;DHT22;21415;48.054;16.646;2022-10-19T16:01:26;19.50;42.80
35299;DHT22;21415;48.054;16.646;2022-10-19T16:03:52;19.50;42.50
35299;DHT22;21415;48.054;16.646;2022-10-19T16:06:20;19.40;42.80
35299;DHT22;21415;48.054;16.646;2022-10-19T16:08:46;19.30;42.80
35299;DHT22;21415;48.054;16.646;2022-10-19T16:11:14;19.30;42.80
35299;DHT22;21415;48.054;16.646;2022-10-19T16:13:40;19.20;42.80
35299;DHT22;21415;48.054;16.646;2022-10-19T16:16:09;19.20;42.90
35299;DHT22;21415;48.054;16.646;2022-10-19T16:18:37;19.10;42.80
35299;DHT22;21415;48.054;16.646;2022-10-19T16:21:03;19.10;42.90
35299;DHT22;21415;48.054;16.646;2022-10-19T16:23:29;19.00;42.80
35299;DHT22;21415;48.054;16.646;2022-10-19T16:25:59;19.00;42.90
35299;DHT22;21415;48.054;16.646;2022-10-19T16:28:25;18.90;42.80
35299;DHT22;21415;48.054;16.646;2022-10-19T16:30:51;18.80;42.90
35299;DHT22;21415;48.054;16.646;2022-10-19T16:33:17;18.80;43.00
35299;DHT22;21415;48.054;16.646;2022-10-19T16:35:42;18.80;43.20
35299;DHT22;21415;48.054;16.646;2022-10-19T16:38:08;18.70;43.10
35299;DHT22;21415;48.054;16.646;2022-10-19T16:40:34;18.70;43.10
35299;DHT22;21415;48.054;16.646;2022-10-19T16:43:00;18.60;43.10
35299;DHT22;21415;48.054;16.646;2022-10-19T16:45:26;18.50;43.10
35299;DHT22;21415;48.054;16.646;2022-10-19T16:47:52;18.50;43.20
35299;DHT22;21415;48.054;16.646;2022-10-19T16:50:18;18.40;43.20
35299;DHT22;21415;48.054;16.646;2022-10-19T16:52:44;18.40;43.30
35299;DHT22;21415;48.054;16.646;2022-10-19T16:55:10;18.30;43.20
35299;DHT22;21415;48.054;16.646;2022-10-19T16:57:36;18.30;43.20
35299;DHT22;21415;48.054;16.646;2022-10-19T17:00:03;18.20;43.20
35299;DHT22;21415;48.054;16.646;2022-10-19T17:02:30;18.20;43.20
35299;DHT22;21415;48.054;16.646;2022-10-19T17:04:55;18.20;43.30
35299;DHT22;21415;48.054;16.646;2022-10-19T17:07:21;18.10;43.30
35299;DHT22;21415;48.054;16.646;2022-10-19T17:09:48;18.10;43.40
35299;DHT22;21415;48.054;16.646;2022-10-19T17:12:13;18.00;43.40
35299;DHT22;21415;48.054;16.646;2022-10-19T17:14:40;18.10;43.50
35299;DHT22;21415;48.054;16.646;2022-10-19T17:17:07;18.00;43.40
35299;DHT22;21415;48.054;16.646;2022-10-19T17:19:32;18.00;43.50
35299;DHT22;21415;48.054;16.646;2022-10-19T17:21:58;18.00;43.50
35299;DHT22;21415;48.054;16.646;2022-10-19T17:24:26;17.90;43.50
35299;DHT22;21415;48.054;16.646;2022-10-19T17:26:52;17.90;43.50
35299;DHT22;21415;48.054;16.646;2022-10-19T17:29:19;17.80;43.50
35299;DHT22;21415;48.054;16.646;2022-10-19T17:31:45;17.80;43.60
35299;DHT22;21415;48.054;16.646;2022-10-19T17:34:12;17.70;43.70
35299;DHT22;21415;48.054;16.646;2022-10-19T17:36:40;17.70;43.80
35299;DHT22;21415;48.054;16.646;2022-10-19T17:39:18;17.60;43.90
35299;DHT22;21415;48.054;16.646;2022-10-19T17:41:45;17.50;43.90
35299;DHT22;21415;48.054;16.646;2022-10-19T17:44:12;17.50;44.00
35299;DHT22;21415;48.054;16.646;2022-10-19T17:46:38;17.50;44.10
35299;DHT22;21415;48.054;16.646;2022-10-19T17:49:04;17.40;44.20
35299;DHT22;21415;48.054;16.646;2022-10-19T17:51:32;17.40;44.20
35299;DHT22;21415;48.054;16.646;2022-10-19T17:54:02;17.30;44.30
35299;DHT22;21415;48.054;16.646;2022-10-19T17:56:28;17.30;44.40
35299;DHT22;21415;48.054;16.646;2022-10-19T17:58:55;17.20;44.40
35299;DHT22;21415;48.054;16.646;2022-10-19T18:01:22;17.20;44.50
35299;DHT22;21415;48.054;16.646;2022-10-19T18:03:48;17.20;44.50
35299;DHT22;21415;48.054;16.646;2022-10-19T18:06:26;17.10;44.60
35299;DHT22;21415;48.054;16.646;2022-10-19T18:08:54;17.10;44.60
35299;DHT22;21415;48.054;16.646;2022-10-19T18:11:24;17.10;44.70
35299;DHT22;21415;48.054;16.646;2022-10-19T18:13:52;17.10;44.70
35299;DHT22;21415;48.054;16.646;2022-10-19T18:16:24;17.10;44.80
35299;DHT22;21415;48.054;16.646;2022-10-19T18:18:53;17.10;44.80
35299;DHT22;21415;48.054;16.646;2022-10-19T18:21:28;17.10;44.80
35299;DHT22;21415;48.054;16.646;2022-10-19T18:23:57;17.10;44.60
35299;DHT22;21415;48.054;16.646;2022-10-19T18:26:24;17.10;44.70